sensor_id;sensor_type;location;lat;lon;timestamp;P1;durP1;ratioP1;P2;durP2;ratioP2
24425;SDS011;12611;44.446;26.000;2022-12-08T00:01:37;41.43;;;16.63;;
24425;SDS011;12611;44.446;26.000;2022-12-08T00:04:06;38.47;;;17.67;;
24425;SDS011;12611;44.446;26.000;2022-12-08T00:06:36;41.53;;;18.10;;
24425;SDS011;12611;44.446;26.000;2022-12-08T00:09:24;44.67;;;17.93;;
24425;SDS011;12611;44.446;26.000;2022-12-08T00:12:04;39.80;;;17.37;;
24425;SDS011;12611;44.446;26.000;2022-12-08T00:14:34;37.30;;;17.70;;
24425;SDS011;12611;44.446;26.000;2022-12-08T00:17:03;37.37;;;15.87;;
24425;SDS011;12611;44.446;26.000;2022-12-08T00:19:33;37.67;;;16.23;;
24425;SDS011;12611;44.446;26.000;2022-12-08T00:22:03;38.53;;;16.57;;
24425;SDS011;12611;44.446;26.000;2022-12-08T00:24:32;40.17;;;15.90;;
24425;SDS011;12611;44.446;26.000;2022-12-08T00:27:03;34.63;;;15.60;;
24425;SDS011;12611;44.446;26.000;2022-12-08T00:29:32;37.93;;;16.80;;
24425;SDS011;12611;44.446;26.000;2022-12-08T00:32:01;38.83;;;16.87;;
24425;SDS011;12611;44.446;26.000;2022-12-08T00:34:29;37.23;;;16.97;;
24425;SDS011;12611;44.446;26.000;2022-12-08T00:36:58;39.53;;;16.57;;
24425;SDS011;12611;44.446;26.000;2022-12-08T00:39:28;35.73;;;16.53;;
24425;SDS011;12611;44.446;26.000;2022-12-08T00:41:56;34.77;;;15.90;;
24425;SDS011;12611;44.446;26.000;2022-12-08T00:44:39;38.80;;;15.97;;
24425;SDS011;12611;44.446;26.000;2022-12-08T00:47:09;32.23;;;16.27;;
24425;SDS011;12611;44.446;26.000;2022-12-08T00:49:37;37.60;;;15.37;;
24425;SDS011;12611;44.446;26.000;2022-12-08T00:52:06;36.37;;;14.77;;
24425;SDS011;12611;44.446;26.000;2022-12-08T00:54:36;37.57;;;15.87;;
24425;SDS011;12611;44.446;26.000;2022-12-08T00:57:04;37.77;;;16.77;;
24425;SDS011;12611;44.446;26.000;2022-12-08T00:59:32;35.13;;;15.80;;
24425;SDS011;12611;44.446;26.000;2022-12-08T01:02:01;36.57;;;16.60;;
24425;SDS011;12611;44.446;26.000;2022-12-08T01:04:29;36.20;;;15.83;;
24425;SDS011;12611;44.446;26.000;2022-12-08T01:06:57;44.80;;;18.17;;
24425;SDS011;12611;44.446;26.000;2022-12-08T01:09:28;40.50;;;15.93;;
24425;SDS011;12611;44.446;26.000;2022-12-08T01:12:05;35.70;;;16.93;;
24425;SDS011;12611;44.446;26.000;2022-12-08T01:14:34;36.33;;;15.50;;
24425;SDS011;12611;44.446;26.000;2022-12-08T01:17:03;34.87;;;16.33;;
24425;SDS011;12611;44.446;26.000;2022-12-08T01:19:31;31.63;;;15.07;;
24425;SDS011;12611;44.446;26.000;2022-12-08T01:21:59;39.30;;;15.40;;
24425;SDS011;12611;44.446;26.000;2022-12-08T01:24:28;36.30;;;15.40;;
24425;SDS011;12611;44.446;26.000;2022-12-08T01:26:56;39.40;;;17.17;;
24425;SDS011;12611;44.446;26.000;2022-12-08T01:29:26;36.80;;;16.07;;
24425;SDS011;12611;44.446;26.000;2022-12-08T01:31:54;37.07;;;16.57;;
24425;SDS011;12611;44.446;26.000;2022-12-08T01:34:23;34.93;;;15.30;;
24425;SDS011;12611;44.446;26.000;2022-12-08T01:36:51;35.83;;;15.33;;
24425;SDS011;12611;44.446;26.000;2022-12-08T01:39:19;37.28;;;17.90;;
24425;SDS011;12611;44.446;26.000;2022-12-08T01:41:48;34.83;;;15.57;;
24425;SDS011;12611;44.446;26.000;2022-12-08T01:47:31;36.57;;;15.63;;
24425;SDS011;12611;44.446;26.000;2022-12-08T01:50:04;33.33;;;15.47;;
24425;SDS011;12611;44.446;26.000;2022-12-08T01:52:36;39.63;;;19.20;;
24425;SDS011;12611;44.446;26.000;2022-12-08T01:55:08;36.73;;;17.50;;
24425;SDS011;12611;44.446;26.000;2022-12-08T01:57:42;36.33;;;16.23;;
24425;SDS011;12611;44.446;26.000;2022-12-08T02:00:14;40.37;;;15.87;;
24425;SDS011;12611;44.446;26.000;2022-12-08T02:02:48;37.77;;;16.43;;
24425;SDS011;12611;44.446;26.000;2022-12-08T02:05:20;39.33;;;19.15;;
24425;SDS011;12611;44.446;26.000;2022-12-08T02:07:51;35.90;;;15.13;;
24425;SDS011;12611;44.446;26.000;2022-12-08T02:10:21;35.17;;;16.27;;
24425;SDS011;12611;44.446;26.000;2022-12-08T02:12:50;36.03;;;16.33;;
24425;SDS011;12611;44.446;26.000;2022-12-08T02:15:25;41.77;;;17.33;;
24425;SDS011;12611;44.446;26.000;2022-12-08T02:18:05;39.13;;;16.23;;
24425;SDS011;12611;44.446;26.000;2022-12-08T02:20:48;37.93;;;16.87;;
24425;SDS011;12611;44.446;26.000;2022-12-08T02:23:24;37.10;;;17.30;;
24425;SDS011;12611;44.446;26.000;2022-12-08T02:29:11;42.07;;;17.87;;
24425;SDS011;12611;44.446;26.000;2022-12-08T02:32:15;36.73;;;16.33;;
24425;SDS011;12611;44.446;26.000;2022-12-08T02:35:04;35.20;;;16.73;;
24425;SDS011;12611;44.446;26.000;2022-12-08T02:37:38;37.13;;;15.73;;
24425;SDS011;12611;44.446;26.000;2022-12-08T02:40:13;38.70;;;16.20;;
24425;SDS011;12611;44.446;26.000;2022-12-08T02:42:46;44.08;;;18.92;;
24425;SDS011;12611;44.446;26.000;2022-12-08T02:45:21;36.27;;;16.17;;
24425;SDS011;12611;44.446;26.000;2022-12-08T02:47:54;41.23;;;17.60;;
24425;SDS011;12611;44.446;26.000;2022-12-08T02:50:26;40.20;;;17.37;;
24425;SDS011;12611;44.446;26.000;2022-12-08T02:52:54;39.43;;;14.73;;
24425;SDS011;12611;44.446;26.000;2022-12-08T02:55:24;47.57;;;19.50;;
24425;SDS011;12611;44.446;26.000;2022-12-08T03:01:05;37.80;;;15.57;;
24425;SDS011;12611;44.446;26.000;2022-12-08T03:03:44;39.27;;;16.33;;
24425;SDS011;12611;44.446;26.000;2022-12-08T03:06:26;43.33;;;17.33;;
24425;SDS011;12611;44.446;26.000;2022-12-08T03:08:58;52.08;;;20.67;;
24425;SDS011;12611;44.446;26.000;2022-12-08T03:11:33;46.00;;;18.03;;
24425;SDS011;12611;44.446;26.000;2022-12-08T03:14:06;49.73;;;17.20;;
24425;SDS011;12611;44.446;26.000;2022-12-08T03:16:39;47.73;;;18.53;;
24425;SDS011;12611;44.446;26.000;2022-12-08T03:19:11;51.90;;;19.10;;
24425;SDS011;12611;44.446;26.000;2022-12-08T03:21:44;51.63;;;19.70;;
24425;SDS011;12611;44.446;26.000;2022-12-08T03:24:16;48.97;;;18.83;;
24425;SDS011;12611;44.446;26.000;2022-12-08T03:26:49;42.47;;;16.00;;
24425;SDS011;12611;44.446;26.000;2022-12-08T03:29:22;50.10;;;16.90;;
24425;SDS011;12611;44.446;26.000;2022-12-08T03:31:53;40.93;;;18.37;;
24425;SDS011;12611;44.446;26.000;2022-12-08T03:34:25;51.93;;;20.53;;
24425;SDS011;12611;44.446;26.000;2022-12-08T03:36:58;48.70;;;18.17;;
24425;SDS011;12611;44.446;26.000;2022-12-08T03:39:27;47.80;;;16.37;;
24425;SDS011;12611;44.446;26.000;2022-12-08T03:41:56;45.13;;;17.30;;
24425;SDS011;12611;44.446;26.000;2022-12-08T03:44:24;54.03;;;19.03;;
24425;SDS011;12611;44.446;26.000;2022-12-08T03:46:52;44.40;;;17.20;;
24425;SDS011;12611;44.446;26.000;2022-12-08T03:49:20;48.57;;;18.43;;
24425;SDS011;12611;44.446;26.000;2022-12-08T03:51:49;40.77;;;15.13;;
24425;SDS011;12611;44.446;26.000;2022-12-08T03:54:18;47.63;;;16.30;;
24425;SDS011;12611;44.446;26.000;2022-12-08T03:56:46;42.13;;;15.20;;
24425;SDS011;12611;44.446;26.000;2022-12-08T03:59:15;43.33;;;16.43;;
24425;SDS011;12611;44.446;26.000;2022-12-08T04:01:43;42.40;;;16.60;;
24425;SDS011;12611;44.446;26.000;2022-12-08T04:04:12;42.57;;;16.57;;
24425;SDS011;12611;44.446;26.000;2022-12-08T04:06:40;38.27;;;15.83;;
24425;SDS011;12611;44.446;26.000;2022-12-08T04:09:08;40.47;;;15.30;;
24425;SDS011;12611;44.446;26.000;2022-12-08T04:11:38;44.77;;;16.63;;
24425;SDS011;12611;44.446;26.000;2022-12-08T04:14:06;42.50;;;16.07;;
24425;SDS011;12611;44.446;26.000;2022-12-08T04:16:34;46.67;;;18.73;;
24425;SDS011;12611;44.446;26.000;2022-12-08T04:19:03;49.00;;;16.43;;
24425;SDS011;12611;44.446;26.000;2022-12-08T04:21:31;46.53;;;16.03;;
24425;SDS011;12611;44.446;26.000;2022-12-08T04:23:59;44.10;;;18.17;;
24425;SDS011;12611;44.446;26.000;2022-12-08T04:26:28;53.00;;;20.25;;
24425;SDS011;12611;44.446;26.000;2022-12-08T04:28:57;48.20;;;18.13;;
24425;SDS011;12611;44.446;26.000;2022-12-08T04:31:26;47.00;;;18.33;;
24425;SDS011;12611;44.446;26.000;2022-12-08T04:33:54;46.43;;;17.33;;
24425;SDS011;12611;44.446;26.000;2022-12-08T04:36:22;46.03;;;18.33;;
24425;SDS011;12611;44.446;26.000;2022-12-08T04:38:51;49.80;;;18.27;;
24425;SDS011;12611;44.446;26.000;2022-12-08T04:41:19;42.27;;;17.77;;
24425;SDS011;12611;44.446;26.000;2022-12-08T04:43:47;50.93;;;19.20;;
24425;SDS011;12611;44.446;26.000;2022-12-08T04:46:17;45.03;;;15.90;;
24425;SDS011;12611;44.446;26.000;2022-12-08T04:48:45;45.53;;;18.73;;
24425;SDS011;12611;44.446;26.000;2022-12-08T04:51:14;48.23;;;17.70;;
24425;SDS011;12611;44.446;26.000;2022-12-08T04:53:44;51.67;;;19.23;;
24425;SDS011;12611;44.446;26.000;2022-12-08T04:56:13;49.17;;;19.77;;
24425;SDS011;12611;44.446;26.000;2022-12-08T04:58:42;50.00;;;20.40;;
24425;SDS011;12611;44.446;26.000;2022-12-08T05:01:11;53.57;;;20.43;;
24425;SDS011;12611;44.446;26.000;2022-12-08T05:03:41;53.27;;;20.60;;
24425;SDS011;12611;44.446;26.000;2022-12-08T05:06:09;51.70;;;19.90;;
24425;SDS011;12611;44.446;26.000;2022-12-08T05:08:40;51.50;;;19.23;;
24425;SDS011;12611;44.446;26.000;2022-12-08T05:11:09;56.00;;;19.43;;
24425;SDS011;12611;44.446;26.000;2022-12-08T05:13:38;53.33;;;19.50;;
24425;SDS011;12611;44.446;26.000;2022-12-08T05:16:07;47.23;;;18.87;;
24425;SDS011;12611;44.446;26.000;2022-12-08T05:18:36;49.73;;;19.13;;
24425;SDS011;12611;44.446;26.000;2022-12-08T05:21:07;45.87;;;18.43;;
24425;SDS011;12611;44.446;26.000;2022-12-08T05:23:35;46.07;;;17.90;;
24425;SDS011;12611;44.446;26.000;2022-12-08T05:26:04;50.33;;;17.83;;
24425;SDS011;12611;44.446;26.000;2022-12-08T05:28:32;54.50;;;19.33;;
24425;SDS011;12611;44.446;26.000;2022-12-08T05:31:09;53.80;;;18.57;;
24425;SDS011;12611;44.446;26.000;2022-12-08T05:33:39;47.30;;;18.43;;
24425;SDS011;12611;44.446;26.000;2022-12-08T05:36:09;59.77;;;20.47;;
24425;SDS011;12611;44.446;26.000;2022-12-08T05:38:39;51.40;;;18.43;;
24425;SDS011;12611;44.446;26.000;2022-12-08T05:41:09;46.23;;;17.47;;
24425;SDS011;12611;44.446;26.000;2022-12-08T05:43:39;46.43;;;18.43;;
24425;SDS011;12611;44.446;26.000;2022-12-08T05:46:08;50.37;;;18.67;;
24425;SDS011;12611;44.446;26.000;2022-12-08T05:48:37;48.67;;;18.00;;
24425;SDS011;12611;44.446;26.000;2022-12-08T05:51:06;45.13;;;17.67;;
24425;SDS011;12611;44.446;26.000;2022-12-08T05:53:41;48.67;;;18.20;;
24425;SDS011;12611;44.446;26.000;2022-12-08T05:56:09;46.30;;;17.40;;
24425;SDS011;12611;44.446;26.000;2022-12-08T05:58:37;47.03;;;18.33;;
24425;SDS011;12611;44.446;26.000;2022-12-08T06:01:06;51.50;;;18.83;;
24425;SDS011;12611;44.446;26.000;2022-12-08T06:03:34;52.17;;;18.90;;
24425;SDS011;12611;44.446;26.000;2022-12-08T06:06:03;49.67;;;17.87;;
24425;SDS011;12611;44.446;26.000;2022-12-08T06:08:31;56.30;;;20.63;;
24425;SDS011;12611;44.446;26.000;2022-12-08T06:11:01;53.57;;;18.53;;
24425;SDS011;12611;44.446;26.000;2022-12-08T06:13:29;51.63;;;18.97;;
24425;SDS011;12611;44.446;26.000;2022-12-08T06:16:01;51.43;;;19.17;;
24425;SDS011;12611;44.446;26.000;2022-12-08T06:18:31;55.10;;;19.17;;
24425;SDS011;12611;44.446;26.000;2022-12-08T06:21:02;52.50;;;18.07;;
24425;SDS011;12611;44.446;26.000;2022-12-08T06:23:31;47.77;;;18.30;;
24425;SDS011;12611;44.446;26.000;2022-12-08T06:26:02;44.93;;;18.50;;
24425;SDS011;12611;44.446;26.000;2022-12-08T06:28:31;51.47;;;19.37;;
24425;SDS011;12611;44.446;26.000;2022-12-08T06:31:05;49.57;;;19.20;;
24425;SDS011;12611;44.446;26.000;2022-12-08T06:33:34;52.83;;;18.50;;
24425;SDS011;12611;44.446;26.000;2022-12-08T06:36:02;51.27;;;17.03;;
24425;SDS011;12611;44.446;26.000;2022-12-08T06:38:31;52.13;;;17.80;;
24425;SDS011;12611;44.446;26.000;2022-12-08T06:41:07;53.60;;;19.77;;
24425;SDS011;12611;44.446;26.000;2022-12-08T06:43:35;48.37;;;19.57;;
24425;SDS011;12611;44.446;26.000;2022-12-08T06:46:04;56.83;;;19.73;;
24425;SDS011;12611;44.446;26.000;2022-12-08T06:48:34;46.23;;;18.47;;
24425;SDS011;12611;44.446;26.000;2022-12-08T06:51:06;49.60;;;18.13;;
24425;SDS011;12611;44.446;26.000;2022-12-08T06:53:35;41.73;;;17.70;;
24425;SDS011;12611;44.446;26.000;2022-12-08T06:56:04;59.53;;;20.60;;
24425;SDS011;12611;44.446;26.000;2022-12-08T06:58:35;49.33;;;17.90;;
24425;SDS011;12611;44.446;26.000;2022-12-08T07:01:04;52.93;;;19.77;;
24425;SDS011;12611;44.446;26.000;2022-12-08T07:03:33;51.60;;;19.25;;
24425;SDS011;12611;44.446;26.000;2022-12-08T07:06:02;43.53;;;17.23;;
24425;SDS011;12611;44.446;26.000;2022-12-08T07:08:30;52.47;;;19.10;;
24425;SDS011;12611;44.446;26.000;2022-12-08T07:11:01;46.70;;;17.67;;
24425;SDS011;12611;44.446;26.000;2022-12-08T07:13:35;44.83;;;17.87;;
24425;SDS011;12611;44.446;26.000;2022-12-08T07:16:04;45.67;;;18.63;;
24425;SDS011;12611;44.446;26.000;2022-12-08T07:18:33;45.33;;;15.20;;
24425;SDS011;12611;44.446;26.000;2022-12-08T07:21:03;40.03;;;15.83;;
24425;SDS011;12611;44.446;26.000;2022-12-08T07:23:32;44.87;;;16.60;;
24425;SDS011;12611;44.446;26.000;2022-12-08T07:26:00;45.50;;;16.90;;
24425;SDS011;12611;44.446;26.000;2022-12-08T07:28:32;41.87;;;15.30;;
24425;SDS011;12611;44.446;26.000;2022-12-08T07:31:01;41.03;;;16.13;;
24425;SDS011;12611;44.446;26.000;2022-12-08T07:33:30;43.17;;;17.00;;
24425;SDS011;12611;44.446;26.000;2022-12-08T07:35:59;48.43;;;17.13;;
24425;SDS011;12611;44.446;26.000;2022-12-08T07:38:28;48.23;;;17.30;;
24425;SDS011;12611;44.446;26.000;2022-12-08T07:40:56;45.23;;;17.03;;
24425;SDS011;12611;44.446;26.000;2022-12-08T07:43:25;50.30;;;17.93;;
24425;SDS011;12611;44.446;26.000;2022-12-08T07:45:55;38.83;;;15.17;;
24425;SDS011;12611;44.446;26.000;2022-12-08T07:48:24;37.90;;;15.50;;
24425;SDS011;12611;44.446;26.000;2022-12-08T07:50:58;39.17;;;15.60;;
24425;SDS011;12611;44.446;26.000;2022-12-08T07:53:27;45.53;;;15.77;;
24425;SDS011;12611;44.446;26.000;2022-12-08T07:55:55;44.63;;;17.63;;
24425;SDS011;12611;44.446;26.000;2022-12-08T07:58:24;50.50;;;19.87;;
24425;SDS011;12611;44.446;26.000;2022-12-08T08:00:53;52.23;;;17.93;;
24425;SDS011;12611;44.446;26.000;2022-12-08T08:03:23;43.43;;;16.70;;
24425;SDS011;12611;44.446;26.000;2022-12-08T08:05:51;45.97;;;17.07;;
24425;SDS011;12611;44.446;26.000;2022-12-08T08:08:19;42.67;;;15.83;;
24425;SDS011;12611;44.446;26.000;2022-12-08T08:10:48;46.37;;;17.70;;
24425;SDS011;12611;44.446;26.000;2022-12-08T08:13:16;50.73;;;18.93;;
24425;SDS011;12611;44.446;26.000;2022-12-08T08:15:44;46.03;;;17.10;;
24425;SDS011;12611;44.446;26.000;2022-12-08T08:18:13;44.57;;;18.47;;
24425;SDS011;12611;44.446;26.000;2022-12-08T08:20:43;41.13;;;17.37;;
24425;SDS011;12611;44.446;26.000;2022-12-08T08:23:11;51.87;;;18.50;;
24425;SDS011;12611;44.446;26.000;2022-12-08T08:25:39;47.40;;;16.97;;
24425;SDS011;12611;44.446;26.000;2022-12-08T08:28:07;39.37;;;17.10;;
24425;SDS011;12611;44.446;26.000;2022-12-08T08:30:36;36.73;;;15.83;;
24425;SDS011;12611;44.446;26.000;2022-12-08T08:33:04;35.10;;;14.90;;
24425;SDS011;12611;44.446;26.000;2022-12-08T08:35:32;33.13;;;13.77;;
24425;SDS011;12611;44.446;26.000;2022-12-08T08:38:02;34.47;;;15.27;;
24425;SDS011;12611;44.446;26.000;2022-12-08T08:40:30;35.60;;;15.33;;
24425;SDS011;12611;44.446;26.000;2022-12-08T08:42:59;33.10;;;13.83;;
24425;SDS011;12611;44.446;26.000;2022-12-08T08:45:27;37.77;;;15.30;;
24425;SDS011;12611;44.446;26.000;2022-12-08T08:47:56;37.83;;;15.00;;
24425;SDS011;12611;44.446;26.000;2022-12-08T08:50:24;35.10;;;13.87;;
24425;SDS011;12611;44.446;26.000;2022-12-08T08:53:02;36.13;;;16.03;;
24425;SDS011;12611;44.446;26.000;2022-12-08T08:55:30;37.57;;;14.50;;
24425;SDS011;12611;44.446;26.000;2022-12-08T08:58:08;35.13;;;14.57;;
24425;SDS011;12611;44.446;26.000;2022-12-08T09:00:36;31.70;;;13.87;;
24425;SDS011;12611;44.446;26.000;2022-12-08T09:03:04;40.00;;;15.13;;
24425;SDS011;12611;44.446;26.000;2022-12-08T09:05:32;39.90;;;15.17;;
24425;SDS011;12611;44.446;26.000;2022-12-08T09:08:02;35.50;;;15.03;;
24425;SDS011;12611;44.446;26.000;2022-12-08T09:10:31;29.63;;;12.70;;
24425;SDS011;12611;44.446;26.000;2022-12-08T09:12:59;39.47;;;14.07;;
24425;SDS011;12611;44.446;26.000;2022-12-08T09:15:28;37.73;;;14.90;;
24425;SDS011;12611;44.446;26.000;2022-12-08T09:17:56;37.17;;;13.77;;
24425;SDS011;12611;44.446;26.000;2022-12-08T09:20:24;32.97;;;14.30;;
24425;SDS011;12611;44.446;26.000;2022-12-08T09:22:52;36.33;;;13.90;;
24425;SDS011;12611;44.446;26.000;2022-12-08T09:25:22;30.03;;;12.73;;
24425;SDS011;12611;44.446;26.000;2022-12-08T09:27:50;29.77;;;11.93;;
24425;SDS011;12611;44.446;26.000;2022-12-08T09:30:19;27.27;;;12.07;;
24425;SDS011;12611;44.446;26.000;2022-12-08T09:32:47;34.00;;;12.90;;
24425;SDS011;12611;44.446;26.000;2022-12-08T09:35:15;32.40;;;13.70;;
24425;SDS011;12611;44.446;26.000;2022-12-08T09:37:43;30.77;;;13.33;;
24425;SDS011;12611;44.446;26.000;2022-12-08T09:40:13;33.57;;;14.63;;
24425;SDS011;12611;44.446;26.000;2022-12-08T09:42:48;31.27;;;14.13;;
24425;SDS011;12611;44.446;26.000;2022-12-08T09:45:18;36.07;;;13.60;;
24425;SDS011;12611;44.446;26.000;2022-12-08T09:47:52;35.30;;;14.83;;
24425;SDS011;12611;44.446;26.000;2022-12-08T09:50:28;35.10;;;15.40;;
24425;SDS011;12611;44.446;26.000;2022-12-08T09:53:02;33.40;;;13.53;;
24425;SDS011;12611;44.446;26.000;2022-12-08T09:55:37;33.00;;;14.60;;
24425;SDS011;12611;44.446;26.000;2022-12-08T09:58:12;33.20;;;13.97;;
24425;SDS011;12611;44.446;26.000;2022-12-08T10:00:46;29.70;;;13.80;;
24425;SDS011;12611;44.446;26.000;2022-12-08T10:03:15;29.50;;;12.43;;
24425;SDS011;12611;44.446;26.000;2022-12-08T10:05:46;29.60;;;14.57;;
24425;SDS011;12611;44.446;26.000;2022-12-08T10:08:35;30.73;;;14.13;;
24425;SDS011;12611;44.446;26.000;2022-12-08T10:11:15;29.47;;;12.37;;
24425;SDS011;12611;44.446;26.000;2022-12-08T10:13:53;29.23;;;13.77;;
24425;SDS011;12611;44.446;26.000;2022-12-08T10:16:32;25.30;;;12.30;;
24425;SDS011;12611;44.446;26.000;2022-12-08T10:19:09;30.53;;;12.30;;
24425;SDS011;12611;44.446;26.000;2022-12-08T10:21:42;26.43;;;12.57;;
24425;SDS011;12611;44.446;26.000;2022-12-08T10:24:12;22.40;;;11.57;;
24425;SDS011;12611;44.446;26.000;2022-12-08T10:26:48;26.37;;;12.13;;
24425;SDS011;12611;44.446;26.000;2022-12-08T10:29:17;21.73;;;10.83;;
24425;SDS011;12611;44.446;26.000;2022-12-08T10:31:46;21.57;;;11.03;;
24425;SDS011;12611;44.446;26.000;2022-12-08T10:34:16;27.43;;;11.70;;
24425;SDS011;12611;44.446;26.000;2022-12-08T10:36:46;21.53;;;11.30;;
24425;SDS011;12611;44.446;26.000;2022-12-08T10:39:28;24.80;;;10.60;;
24425;SDS011;12611;44.446;26.000;2022-12-08T10:42:03;27.50;;;11.27;;
24425;SDS011;12611;44.446;26.000;2022-12-08T10:44:53;23.60;;;11.43;;
24425;SDS011;12611;44.446;26.000;2022-12-08T10:47:27;21.63;;;10.73;;
24425;SDS011;12611;44.446;26.000;2022-12-08T10:52:45;20.40;;;10.50;;
24425;SDS011;12611;44.446;26.000;2022-12-08T10:55:21;23.37;;;11.73;;
24425;SDS011;12611;44.446;26.000;2022-12-08T10:57:50;26.10;;;12.30;;
24425;SDS011;12611;44.446;26.000;2022-12-08T11:00:20;28.57;;;13.70;;
24425;SDS011;12611;44.446;26.000;2022-12-08T11:02:52;28.70;;;12.63;;
24425;SDS011;12611;44.446;26.000;2022-12-08T11:05:25;22.83;;;11.97;;
24425;SDS011;12611;44.446;26.000;2022-12-08T11:07:56;25.77;;;12.07;;
24425;SDS011;12611;44.446;26.000;2022-12-08T11:10:27;24.27;;;12.47;;
24425;SDS011;12611;44.446;26.000;2022-12-08T11:13:01;27.97;;;13.20;;
24425;SDS011;12611;44.446;26.000;2022-12-08T11:15:34;29.83;;;13.40;;
24425;SDS011;12611;44.446;26.000;2022-12-08T11:18:08;25.83;;;13.07;;
24425;SDS011;12611;44.446;26.000;2022-12-08T11:20:54;26.53;;;13.10;;
24425;SDS011;12611;44.446;26.000;2022-12-08T11:23:25;24.70;;;12.30;;
24425;SDS011;12611;44.446;26.000;2022-12-08T11:25:56;29.47;;;13.40;;
24425;SDS011;12611;44.446;26.000;2022-12-08T11:28:30;30.20;;;13.67;;
24425;SDS011;12611;44.446;26.000;2022-12-08T11:31:01;29.70;;;14.03;;
24425;SDS011;12611;44.446;26.000;2022-12-08T11:33:38;26.77;;;13.20;;
24425;SDS011;12611;44.446;26.000;2022-12-08T11:36:08;28.27;;;13.50;;
24425;SDS011;12611;44.446;26.000;2022-12-08T11:38:41;29.43;;;13.90;;
24425;SDS011;12611;44.446;26.000;2022-12-08T11:41:13;27.67;;;14.43;;
24425;SDS011;12611;44.446;26.000;2022-12-08T11:43:45;30.73;;;14.20;;
24425;SDS011;12611;44.446;26.000;2022-12-08T11:46:21;31.53;;;13.50;;
24425;SDS011;12611;44.446;26.000;2022-12-08T11:49:00;27.70;;;13.73;;
24425;SDS011;12611;44.446;26.000;2022-12-08T11:51:33;33.53;;;15.20;;
24425;SDS011;12611;44.446;26.000;2022-12-08T11:54:12;28.80;;;13.83;;
24425;SDS011;12611;44.446;26.000;2022-12-08T11:56:52;33.63;;;16.92;;
24425;SDS011;12611;44.446;26.000;2022-12-08T11:59:24;32.20;;;13.20;;
24425;SDS011;12611;44.446;26.000;2022-12-08T12:01:57;33.27;;;15.47;;
24425;SDS011;12611;44.446;26.000;2022-12-08T12:04:28;31.60;;;14.27;;
24425;SDS011;12611;44.446;26.000;2022-12-08T12:10:00;28.83;;;13.97;;
24425;SDS011;12611;44.446;26.000;2022-12-08T12:12:46;27.07;;;13.57;;
24425;SDS011;12611;44.446;26.000;2022-12-08T12:15:31;26.73;;;13.53;;
24425;SDS011;12611;44.446;26.000;2022-12-08T12:18:24;27.47;;;13.37;;
24425;SDS011;12611;44.446;26.000;2022-12-08T12:20:56;28.40;;;13.17;;
24425;SDS011;12611;44.446;26.000;2022-12-08T12:23:28;32.13;;;13.90;;
24425;SDS011;12611;44.446;26.000;2022-12-08T12:26:03;29.33;;;14.83;;
24425;SDS011;12611;44.446;26.000;2022-12-08T12:28:36;34.70;;;15.67;;
24425;SDS011;12611;44.446;26.000;2022-12-08T12:31:10;26.10;;;13.70;;
24425;SDS011;12611;44.446;26.000;2022-12-08T12:33:54;31.77;;;15.67;;
24425;SDS011;12611;44.446;26.000;2022-12-08T12:36:31;30.80;;;15.07;;
24425;SDS011;12611;44.446;26.000;2022-12-08T12:39:13;35.33;;;16.37;;
24425;SDS011;12611;44.446;26.000;2022-12-08T12:41:44;34.60;;;16.50;;
24425;SDS011;12611;44.446;26.000;2022-12-08T12:44:21;32.17;;;16.47;;
24425;SDS011;12611;44.446;26.000;2022-12-08T12:47:09;36.13;;;16.80;;
24425;SDS011;12611;44.446;26.000;2022-12-08T12:53:03;32.93;;;16.07;;
24425;SDS011;12611;44.446;26.000;2022-12-08T12:58:36;32.60;;;16.77;;
24425;SDS011;12611;44.446;26.000;2022-12-08T13:04:04;31.20;;;15.90;;
24425;SDS011;12611;44.446;26.000;2022-12-08T13:06:37;32.43;;;16.43;;
24425;SDS011;12611;44.446;26.000;2022-12-08T13:09:21;33.83;;;15.70;;
24425;SDS011;12611;44.446;26.000;2022-12-08T13:11:54;36.80;;;17.17;;
24425;SDS011;12611;44.446;26.000;2022-12-08T13:14:25;39.00;;;17.47;;
24425;SDS011;12611;44.446;26.000;2022-12-08T13:21:09;39.03;;;18.50;;
24425;SDS011;12611;44.446;26.000;2022-12-08T13:23:42;34.80;;;16.63;;
24425;SDS011;12611;44.446;26.000;2022-12-08T13:26:14;33.83;;;16.40;;
24425;SDS011;12611;44.446;26.000;2022-12-08T13:29:04;33.77;;;16.83;;
24425;SDS011;12611;44.446;26.000;2022-12-08T13:31:41;42.10;;;20.27;;
24425;SDS011;12611;44.446;26.000;2022-12-08T13:34:17;40.70;;;19.23;;
24425;SDS011;12611;44.446;26.000;2022-12-08T13:36:56;38.03;;;19.00;;
24425;SDS011;12611;44.446;26.000;2022-12-08T13:39:39;39.70;;;19.07;;
24425;SDS011;12611;44.446;26.000;2022-12-08T13:42:13;36.57;;;17.97;;
24425;SDS011;12611;44.446;26.000;2022-12-08T13:44:48;41.57;;;18.97;;
24425;SDS011;12611;44.446;26.000;2022-12-08T13:47:41;38.27;;;18.77;;
24425;SDS011;12611;44.446;26.000;2022-12-08T13:50:34;36.77;;;18.67;;
24425;SDS011;12611;44.446;26.000;2022-12-08T13:53:26;40.57;;;18.43;;
24425;SDS011;12611;44.446;26.000;2022-12-08T13:56:19;38.07;;;18.10;;
24425;SDS011;12611;44.446;26.000;2022-12-08T13:59:09;38.23;;;19.40;;
24425;SDS011;12611;44.446;26.000;2022-12-08T14:01:53;45.77;;;20.13;;
24425;SDS011;12611;44.446;26.000;2022-12-08T14:04:24;43.67;;;20.37;;
24425;SDS011;12611;44.446;26.000;2022-12-08T14:07:13;41.33;;;18.97;;
24425;SDS011;12611;44.446;26.000;2022-12-08T14:09:42;52.97;;;22.05;;
24425;SDS011;12611;44.446;26.000;2022-12-08T14:12:16;40.90;;;19.43;;
24425;SDS011;12611;44.446;26.000;2022-12-08T14:14:47;41.43;;;18.70;;
24425;SDS011;12611;44.446;26.000;2022-12-08T14:17:33;43.77;;;20.13;;
24425;SDS011;12611;44.446;26.000;2022-12-08T14:20:02;42.63;;;19.87;;
24425;SDS011;12611;44.446;26.000;2022-12-08T14:22:40;40.73;;;17.97;;
24425;SDS011;12611;44.446;26.000;2022-12-08T14:25:10;34.97;;;17.63;;
24425;SDS011;12611;44.446;26.000;2022-12-08T14:27:43;35.73;;;19.00;;
24425;SDS011;12611;44.446;26.000;2022-12-08T14:30:15;35.73;;;17.67;;
24425;SDS011;12611;44.446;26.000;2022-12-08T14:32:46;35.77;;;17.03;;
24425;SDS011;12611;44.446;26.000;2022-12-08T14:35:18;39.70;;;19.17;;
24425;SDS011;12611;44.446;26.000;2022-12-08T14:37:50;40.57;;;19.20;;
24425;SDS011;12611;44.446;26.000;2022-12-08T14:40:22;39.23;;;18.53;;
24425;SDS011;12611;44.446;26.000;2022-12-08T14:43:09;36.17;;;17.60;;
24425;SDS011;12611;44.446;26.000;2022-12-08T14:45:45;39.50;;;20.00;;
24425;SDS011;12611;44.446;26.000;2022-12-08T14:48:19;41.40;;;20.50;;
24425;SDS011;12611;44.446;26.000;2022-12-08T14:50:56;42.43;;;19.90;;
24425;SDS011;12611;44.446;26.000;2022-12-08T14:53:34;38.57;;;17.83;;
24425;SDS011;12611;44.446;26.000;2022-12-08T14:56:31;37.47;;;18.93;;
24425;SDS011;12611;44.446;26.000;2022-12-08T14:59:05;41.10;;;18.90;;
24425;SDS011;12611;44.446;26.000;2022-12-08T15:01:44;37.73;;;18.50;;
24425;SDS011;12611;44.446;26.000;2022-12-08T15:04:14;44.83;;;20.57;;
24425;SDS011;12611;44.446;26.000;2022-12-08T15:06:46;45.70;;;20.13;;